sensor_id;sensor_type;location;lat;lon;timestamp;P1;durP1;ratioP1;P2;durP2;ratioP2
37267;SDS011;23154;52.542;13.362;2023-07-29T00:00:53;17.90;;;8.55;;
37267;SDS011;23154;52.542;13.362;2023-07-29T00:03:21;20.20;;;9.15;;
37267;SDS011;23154;52.542;13.362;2023-07-29T00:05:47;18.52;;;8.60;;
37267;SDS011;23154;52.542;13.362;2023-07-29T00:08:13;17.83;;;8.43;;
37267;SDS011;23154;52.542;13.362;2023-07-29T00:10:39;22.17;;;9.43;;
37267;SDS011;23154;52.542;13.362;2023-07-29T00:13:05;20.05;;;8.98;;
37267;SDS011;23154;52.542;13.362;2023-07-29T00:15:31;20.30;;;9.05;;
37267;SDS011;23154;52.542;13.362;2023-07-29T00:17:57;18.55;;;8.25;;
37267;SDS011;23154;52.542;13.362;2023-07-29T00:20:24;30.52;;;16.08;;
37267;SDS011;23154;52.542;13.362;2023-07-29T00:22:50;22.88;;;10.80;;
37267;SDS011;23154;52.542;13.362;2023-07-29T00:25:18;28.67;;;15.40;;
37267;SDS011;23154;52.542;13.362;2023-07-29T00:27:44;22.00;;;10.02;;
37267;SDS011;23154;52.542;13.362;2023-07-29T00:30:10;19.17;;;10.45;;
37267;SDS011;23154;52.542;13.362;2023-07-29T00:32:37;19.42;;;9.30;;
37267;SDS011;23154;52.542;13.362;2023-07-29T00:35:03;22.55;;;10.23;;
37267;SDS011;23154;52.542;13.362;2023-07-29T00:37:29;19.70;;;9.88;;
37267;SDS011;23154;52.542;13.362;2023-07-29T00:39:56;20.42;;;10.48;;
37267;SDS011;23154;52.542;13.362;2023-07-29T00:42:23;24.63;;;14.52;;
37267;SDS011;23154;52.542;13.362;2023-07-29T00:44:49;20.73;;;10.30;;
37267;SDS011;23154;52.542;13.362;2023-07-29T00:47:15;19.88;;;9.98;;
37267;SDS011;23154;52.542;13.362;2023-07-29T00:49:42;20.23;;;10.45;;
37267;SDS011;23154;52.542;13.362;2023-07-29T00:52:09;19.13;;;9.52;;
37267;SDS011;23154;52.542;13.362;2023-07-29T00:54:37;22.30;;;9.93;;
37267;SDS011;23154;52.542;13.362;2023-07-29T00:57:04;20.48;;;9.30;;
37267;SDS011;23154;52.542;13.362;2023-07-29T00:59:30;18.42;;;9.55;;
37267;SDS011;23154;52.542;13.362;2023-07-29T01:01:57;23.60;;;11.75;;
37267;SDS011;23154;52.542;13.362;2023-07-29T01:04:23;41.05;;;28.10;;
37267;SDS011;23154;52.542;13.362;2023-07-29T01:07:01;20.98;;;10.50;;
37267;SDS011;23154;52.542;13.362;2023-07-29T01:09:30;19.13;;;9.83;;
37267;SDS011;23154;52.542;13.362;2023-07-29T01:12:00;21.65;;;9.63;;
37267;SDS011;23154;52.542;13.362;2023-07-29T01:17:15;20.48;;;9.80;;
37267;SDS011;23154;52.542;13.362;2023-07-29T01:22:11;22.27;;;10.20;;
37267;SDS011;23154;52.542;13.362;2023-07-29T01:24:38;18.65;;;9.68;;
37267;SDS011;23154;52.542;13.362;2023-07-29T01:27:04;19.20;;;9.20;;
37267;SDS011;23154;52.542;13.362;2023-07-29T01:29:30;19.23;;;9.50;;
37267;SDS011;23154;52.542;13.362;2023-07-29T01:31:57;42.40;;;25.27;;
37267;SDS011;23154;52.542;13.362;2023-07-29T01:34:59;32.60;;;19.75;;
37267;SDS011;23154;52.542;13.362;2023-07-29T01:37:18;30.20;;;17.10;;
37267;SDS011;23154;52.542;13.362;2023-07-29T01:39:46;20.92;;;9.95;;
37267;SDS011;23154;52.542;13.362;2023-07-29T01:42:13;23.80;;;10.77;;
37267;SDS011;23154;52.542;13.362;2023-07-29T01:44:39;20.67;;;9.60;;
37267;SDS011;23154;52.542;13.362;2023-07-29T01:47:07;21.70;;;9.35;;
37267;SDS011;23154;52.542;13.362;2023-07-29T01:49:33;20.88;;;10.93;;
37267;SDS011;23154;52.542;13.362;2023-07-29T01:51:59;20.65;;;10.02;;
37267;SDS011;23154;52.542;13.362;2023-07-29T01:54:25;21.67;;;10.68;;
37267;SDS011;23154;52.542;13.362;2023-07-29T01:56:51;21.92;;;10.60;;
37267;SDS011;23154;52.542;13.362;2023-07-29T01:59:17;20.15;;;10.25;;
37267;SDS011;23154;52.542;13.362;2023-07-29T02:01:43;20.98;;;10.07;;
37267;SDS011;23154;52.542;13.362;2023-07-29T02:04:11;19.63;;;9.73;;
37267;SDS011;23154;52.542;13.362;2023-07-29T02:06:37;19.42;;;9.73;;
37267;SDS011;23154;52.542;13.362;2023-07-29T02:09:03;23.00;;;9.82;;
37267;SDS011;23154;52.542;13.362;2023-07-29T02:11:29;18.42;;;9.00;;
37267;SDS011;23154;52.542;13.362;2023-07-29T02:13:56;22.10;;;9.57;;
37267;SDS011;23154;52.542;13.362;2023-07-29T02:16:22;21.63;;;9.50;;
37267;SDS011;23154;52.542;13.362;2023-07-29T02:18:48;20.08;;;9.70;;
37267;SDS011;23154;52.542;13.362;2023-07-29T02:21:15;19.17;;;9.93;;
37267;SDS011;23154;52.542;13.362;2023-07-29T02:23:41;19.58;;;10.00;;
37267;SDS011;23154;52.542;13.362;2023-07-29T02:26:07;21.15;;;9.68;;
37267;SDS011;23154;52.542;13.362;2023-07-29T02:28:33;20.27;;;9.52;;
37267;SDS011;23154;52.542;13.362;2023-07-29T02:33:37;24.48;;;9.68;;
37267;SDS011;23154;52.542;13.362;2023-07-29T02:36:03;26.20;;;10.40;;
37267;SDS011;23154;52.542;13.362;2023-07-29T02:38:30;19.33;;;9.80;;
37267;SDS011;23154;52.542;13.362;2023-07-29T02:40:56;18.35;;;8.85;;
37267;SDS011;23154;52.542;13.362;2023-07-29T02:43:22;18.83;;;8.98;;
37267;SDS011;23154;52.542;13.362;2023-07-29T02:45:48;20.67;;;9.10;;
37267;SDS011;23154;52.542;13.362;2023-07-29T02:48:14;18.23;;;9.27;;
37267;SDS011;23154;52.542;13.362;2023-07-29T02:50:40;21.55;;;10.82;;
37267;SDS011;23154;52.542;13.362;2023-07-29T02:53:06;18.73;;;8.80;;
37267;SDS011;23154;52.542;13.362;2023-07-29T02:55:32;19.17;;;9.15;;
37267;SDS011;23154;52.542;13.362;2023-07-29T02:57:58;18.90;;;9.50;;
37267;SDS011;23154;52.542;13.362;2023-07-29T03:00:24;19.42;;;8.77;;
37267;SDS011;23154;52.542;13.362;2023-07-29T03:02:50;17.88;;;8.30;;
37267;SDS011;23154;52.542;13.362;2023-07-29T03:05:16;18.08;;;8.82;;
37267;SDS011;23154;52.542;13.362;2023-07-29T03:07:42;18.88;;;8.90;;
37267;SDS011;23154;52.542;13.362;2023-07-29T03:10:09;18.80;;;8.98;;
37267;SDS011;23154;52.542;13.362;2023-07-29T03:12:36;20.23;;;9.57;;
37267;SDS011;23154;52.542;13.362;2023-07-29T03:15:02;18.73;;;9.15;;
37267;SDS011;23154;52.542;13.362;2023-07-29T03:17:28;18.60;;;9.13;;
37267;SDS011;23154;52.542;13.362;2023-07-29T03:19:54;23.45;;;8.50;;
37267;SDS011;23154;52.542;13.362;2023-07-29T03:22:20;19.80;;;9.38;;
37267;SDS011;23154;52.542;13.362;2023-07-29T03:24:46;19.50;;;8.30;;
37267;SDS011;23154;52.542;13.362;2023-07-29T03:27:12;22.58;;;9.98;;
37267;SDS011;23154;52.542;13.362;2023-07-29T03:29:40;22.42;;;10.50;;
37267;SDS011;23154;52.542;13.362;2023-07-29T03:32:06;18.63;;;8.98;;
37267;SDS011;23154;52.542;13.362;2023-07-29T03:34:32;20.20;;;8.88;;
37267;SDS011;23154;52.542;13.362;2023-07-29T03:36:58;20.48;;;10.32;;
37267;SDS011;23154;52.542;13.362;2023-07-29T03:39:25;18.33;;;9.25;;
37267;SDS011;23154;52.542;13.362;2023-07-29T03:41:51;19.98;;;8.30;;
37267;SDS011;23154;52.542;13.362;2023-07-29T03:44:17;20.25;;;9.90;;
37267;SDS011;23154;52.542;13.362;2023-07-29T03:46:43;20.92;;;10.00;;
37267;SDS011;23154;52.542;13.362;2023-07-29T03:49:09;18.85;;;8.85;;
37267;SDS011;23154;52.542;13.362;2023-07-29T03:51:35;20.10;;;9.02;;
37267;SDS011;23154;52.542;13.362;2023-07-29T03:54:01;18.83;;;8.75;;
37267;SDS011;23154;52.542;13.362;2023-07-29T03:56:27;20.00;;;9.63;;
37267;SDS011;23154;52.542;13.362;2023-07-29T03:58:53;20.45;;;8.80;;
37267;SDS011;23154;52.542;13.362;2023-07-29T04:01:27;20.30;;;9.20;;
37267;SDS011;23154;52.542;13.362;2023-07-29T04:03:53;18.20;;;7.95;;
37267;SDS011;23154;52.542;13.362;2023-07-29T04:06:20;19.98;;;8.88;;
37267;SDS011;23154;52.542;13.362;2023-07-29T04:08:46;20.42;;;8.70;;
37267;SDS011;23154;52.542;13.362;2023-07-29T04:11:12;21.17;;;9.70;;
37267;SDS011;23154;52.542;13.362;2023-07-29T04:13:38;23.13;;;9.90;;
37267;SDS011;23154;52.542;13.362;2023-07-29T04:16:04;18.08;;;8.40;;
37267;SDS011;23154;52.542;13.362;2023-07-29T04:18:30;18.95;;;9.38;;
37267;SDS011;23154;52.542;13.362;2023-07-29T04:20:56;18.38;;;8.35;;
37267;SDS011;23154;52.542;13.362;2023-07-29T04:23:22;21.75;;;9.43;;
37267;SDS011;23154;52.542;13.362;2023-07-29T04:25:48;17.98;;;8.90;;
37267;SDS011;23154;52.542;13.362;2023-07-29T04:28:15;21.90;;;9.13;;
37267;SDS011;23154;52.542;13.362;2023-07-29T04:30:41;17.63;;;7.53;;
37267;SDS011;23154;52.542;13.362;2023-07-29T04:33:07;18.42;;;7.90;;
37267;SDS011;23154;52.542;13.362;2023-07-29T04:35:33;18.48;;;9.18;;
37267;SDS011;23154;52.542;13.362;2023-07-29T04:37:59;16.85;;;7.95;;
37267;SDS011;23154;52.542;13.362;2023-07-29T04:40:25;17.38;;;7.95;;
37267;SDS011;23154;52.542;13.362;2023-07-29T04:42:51;17.58;;;8.30;;
37267;SDS011;23154;52.542;13.362;2023-07-29T04:45:17;19.55;;;8.32;;
37267;SDS011;23154;52.542;13.362;2023-07-29T04:47:43;17.70;;;7.95;;
37267;SDS011;23154;52.542;13.362;2023-07-29T04:50:09;20.95;;;7.38;;
37267;SDS011;23154;52.542;13.362;2023-07-29T04:52:35;19.30;;;8.35;;
37267;SDS011;23154;52.542;13.362;2023-07-29T04:55:01;19.38;;;7.95;;
37267;SDS011;23154;52.542;13.362;2023-07-29T04:57:27;19.65;;;8.02;;
37267;SDS011;23154;52.542;13.362;2023-07-29T04:59:54;17.00;;;7.75;;
37267;SDS011;23154;52.542;13.362;2023-07-29T05:02:20;16.17;;;6.93;;
37267;SDS011;23154;52.542;13.362;2023-07-29T05:04:46;16.15;;;6.82;;
37267;SDS011;23154;52.542;13.362;2023-07-29T05:07:12;16.50;;;7.35;;
37267;SDS011;23154;52.542;13.362;2023-07-29T05:09:38;18.90;;;8.15;;
37267;SDS011;23154;52.542;13.362;2023-07-29T05:12:04;16.65;;;7.18;;
37267;SDS011;23154;52.542;13.362;2023-07-29T05:14:30;17.80;;;7.68;;
37267;SDS011;23154;52.542;13.362;2023-07-29T05:16:56;16.23;;;7.45;;
37267;SDS011;23154;52.542;13.362;2023-07-29T05:19:22;16.42;;;7.53;;
37267;SDS011;23154;52.542;13.362;2023-07-29T05:21:48;17.17;;;7.47;;
37267;SDS011;23154;52.542;13.362;2023-07-29T05:24:14;17.80;;;8.20;;
37267;SDS011;23154;52.542;13.362;2023-07-29T05:26:40;16.10;;;7.60;;
37267;SDS011;23154;52.542;13.362;2023-07-29T05:29:06;18.00;;;7.53;;
37267;SDS011;23154;52.542;13.362;2023-07-29T05:31:32;17.23;;;7.90;;
37267;SDS011;23154;52.542;13.362;2023-07-29T05:33:58;17.67;;;7.20;;
37267;SDS011;23154;52.542;13.362;2023-07-29T05:36:24;17.13;;;7.60;;
37267;SDS011;23154;52.542;13.362;2023-07-29T05:38:51;16.35;;;7.20;;
37267;SDS011;23154;52.542;13.362;2023-07-29T05:41:17;16.00;;;7.25;;
37267;SDS011;23154;52.542;13.362;2023-07-29T05:43:43;16.65;;;6.90;;
37267;SDS011;23154;52.542;13.362;2023-07-29T05:46:10;20.25;;;6.70;;
37267;SDS011;23154;52.542;13.362;2023-07-29T05:48:36;17.55;;;7.30;;
37267;SDS011;23154;52.542;13.362;2023-07-29T05:51:02;16.20;;;6.43;;
37267;SDS011;23154;52.542;13.362;2023-07-29T05:53:30;19.42;;;7.22;;
37267;SDS011;23154;52.542;13.362;2023-07-29T05:55:56;18.55;;;6.65;;
37267;SDS011;23154;52.542;13.362;2023-07-29T05:58:22;15.80;;;7.18;;
37267;SDS011;23154;52.542;13.362;2023-07-29T06:00:48;18.35;;;7.72;;
37267;SDS011;23154;52.542;13.362;2023-07-29T06:03:14;16.63;;;6.47;;
37267;SDS011;23154;52.542;13.362;2023-07-29T06:05:41;17.63;;;7.05;;
37267;SDS011;23154;52.542;13.362;2023-07-29T06:08:07;16.23;;;6.43;;
37267;SDS011;23154;52.542;13.362;2023-07-29T06:10:36;15.77;;;6.60;;
37267;SDS011;23154;52.542;13.362;2023-07-29T06:13:02;14.85;;;6.20;;
37267;SDS011;23154;52.542;13.362;2023-07-29T06:15:28;19.55;;;6.43;;
37267;SDS011;23154;52.542;13.362;2023-07-29T06:17:54;15.45;;;5.97;;
37267;SDS011;23154;52.542;13.362;2023-07-29T06:20:20;16.17;;;5.85;;
37267;SDS011;23154;52.542;13.362;2023-07-29T06:22:46;15.82;;;6.40;;
37267;SDS011;23154;52.542;13.362;2023-07-29T06:25:12;16.85;;;6.25;;
37267;SDS011;23154;52.542;13.362;2023-07-29T06:27:39;17.73;;;7.00;;
37267;SDS011;23154;52.542;13.362;2023-07-29T06:30:05;16.65;;;6.65;;
37267;SDS011;23154;52.542;13.362;2023-07-29T06:32:31;15.98;;;6.70;;
37267;SDS011;23154;52.542;13.362;2023-07-29T06:34:57;14.52;;;5.75;;
37267;SDS011;23154;52.542;13.362;2023-07-29T06:37:23;13.82;;;6.00;;
37267;SDS011;23154;52.542;13.362;2023-07-29T06:39:49;13.38;;;5.50;;
37267;SDS011;23154;52.542;13.362;2023-07-29T06:42:15;14.85;;;5.75;;
37267;SDS011;23154;52.542;13.362;2023-07-29T06:44:41;14.38;;;6.05;;
37267;SDS011;23154;52.542;13.362;2023-07-29T06:47:07;14.65;;;5.68;;
37267;SDS011;23154;52.542;13.362;2023-07-29T06:49:33;16.45;;;5.38;;
37267;SDS011;23154;52.542;13.362;2023-07-29T06:52:00;16.52;;;5.45;;
37267;SDS011;23154;52.542;13.362;2023-07-29T06:54:26;13.88;;;5.28;;
37267;SDS011;23154;52.542;13.362;2023-07-29T06:56:52;18.70;;;6.00;;
37267;SDS011;23154;52.542;13.362;2023-07-29T06:59:18;14.23;;;5.28;;
37267;SDS011;23154;52.542;13.362;2023-07-29T07:01:44;15.30;;;5.65;;
37267;SDS011;23154;52.542;13.362;2023-07-29T07:04:10;15.68;;;5.20;;
37267;SDS011;23154;52.542;13.362;2023-07-29T07:06:36;18.33;;;5.82;;
37267;SDS011;23154;52.542;13.362;2023-07-29T07:09:02;13.60;;;5.78;;
37267;SDS011;23154;52.542;13.362;2023-07-29T07:11:28;21.20;;;7.07;;
37267;SDS011;23154;52.542;13.362;2023-07-29T07:13:54;16.70;;;5.75;;
37267;SDS011;23154;52.542;13.362;2023-07-29T07:16:21;12.65;;;4.95;;
37267;SDS011;23154;52.542;13.362;2023-07-29T07:18:47;16.02;;;5.55;;
37267;SDS011;23154;52.542;13.362;2023-07-29T07:21:13;22.17;;;9.75;;
37267;SDS011;23154;52.542;13.362;2023-07-29T07:23:39;16.55;;;7.00;;
37267;SDS011;23154;52.542;13.362;2023-07-29T07:26:05;14.50;;;5.30;;
37267;SDS011;23154;52.542;13.362;2023-07-29T07:28:31;17.63;;;6.15;;
37267;SDS011;23154;52.542;13.362;2023-07-29T07:30:57;15.20;;;5.18;;
37267;SDS011;23154;52.542;13.362;2023-07-29T07:33:24;17.75;;;7.30;;
37267;SDS011;23154;52.542;13.362;2023-07-29T07:35:50;14.95;;;6.32;;
37267;SDS011;23154;52.542;13.362;2023-07-29T07:38:16;13.93;;;5.88;;
37267;SDS011;23154;52.542;13.362;2023-07-29T07:40:42;18.10;;;6.40;;
37267;SDS011;23154;52.542;13.362;2023-07-29T07:43:08;15.65;;;6.28;;
37267;SDS011;23154;52.542;13.362;2023-07-29T07:45:35;18.15;;;5.90;;
37267;SDS011;23154;52.542;13.362;2023-07-29T07:48:01;14.20;;;6.15;;
37267;SDS011;23154;52.542;13.362;2023-07-29T07:50:30;16.40;;;6.50;;
37267;SDS011;23154;52.542;13.362;2023-07-29T07:52:56;15.07;;;6.03;;
37267;SDS011;23154;52.542;13.362;2023-07-29T07:55:23;14.93;;;6.68;;
37267;SDS011;23154;52.542;13.362;2023-07-29T07:57:48;14.10;;;5.72;;
37267;SDS011;23154;52.542;13.362;2023-07-29T08:00:15;14.27;;;5.70;;
37267;SDS011;23154;52.542;13.362;2023-07-29T08:02:43;12.02;;;5.35;;
37267;SDS011;23154;52.542;13.362;2023-07-29T08:05:09;14.00;;;5.45;;
37267;SDS011;23154;52.542;13.362;2023-07-29T08:07:35;14.38;;;5.50;;
37267;SDS011;23154;52.542;13.362;2023-07-29T08:10:02;14.20;;;5.60;;
37267;SDS011;23154;52.542;13.362;2023-07-29T08:12:28;14.02;;;5.32;;
37267;SDS011;23154;52.542;13.362;2023-07-29T08:14:54;12.77;;;5.28;;
37267;SDS011;23154;52.542;13.362;2023-07-29T08:17:20;11.20;;;4.78;;
37267;SDS011;23154;52.542;13.362;2023-07-29T08:19:46;12.48;;;4.70;;
37267;SDS011;23154;52.542;13.362;2023-07-29T08:22:12;15.05;;;5.70;;
37267;SDS011;23154;52.542;13.362;2023-07-29T08:24:38;11.73;;;4.90;;
37267;SDS011;23154;52.542;13.362;2023-07-29T08:27:04;12.55;;;4.60;;
37267;SDS011;23154;52.542;13.362;2023-07-29T08:29:30;14.25;;;4.43;;
37267;SDS011;23154;52.542;13.362;2023-07-29T08:31:56;10.95;;;3.83;;
37267;SDS011;23154;52.542;13.362;2023-07-29T08:34:22;10.70;;;3.70;;
37267;SDS011;23154;52.542;13.362;2023-07-29T08:36:48;11.18;;;4.05;;
37267;SDS011;23154;52.542;13.362;2023-07-29T08:39:14;10.93;;;4.07;;
37267;SDS011;23154;52.542;13.362;2023-07-29T08:41:44;11.15;;;3.83;;
37267;SDS011;23154;52.542;13.362;2023-07-29T08:44:12;13.75;;;4.20;;
37267;SDS011;23154;52.542;13.362;2023-07-29T08:46:43;9.82;;;3.90;;
37267;SDS011;23154;52.542;13.362;2023-07-29T08:49:11;12.38;;;4.15;;
37267;SDS011;23154;52.542;13.362;2023-07-29T08:51:38;7.40;;;3.43;;
37267;SDS011;23154;52.542;13.362;2023-07-29T08:54:05;9.10;;;3.75;;
37267;SDS011;23154;52.542;13.362;2023-07-29T08:56:31;11.45;;;3.80;;
37267;SDS011;23154;52.542;13.362;2023-07-29T08:58:57;11.02;;;4.07;;
37267;SDS011;23154;52.542;13.362;2023-07-29T09:01:25;11.75;;;4.35;;
37267;SDS011;23154;52.542;13.362;2023-07-29T09:03:51;11.77;;;4.28;;
37267;SDS011;23154;52.542;13.362;2023-07-29T09:06:18;13.98;;;4.15;;
37267;SDS011;23154;52.542;13.362;2023-07-29T09:08:45;18.48;;;3.83;;
37267;SDS011;23154;52.542;13.362;2023-07-29T09:11:13;15.93;;;3.92;;
37267;SDS011;23154;52.542;13.362;2023-07-29T09:13:41;8.98;;;3.55;;
37267;SDS011;23154;52.542;13.362;2023-07-29T09:16:08;10.88;;;4.22;;
37267;SDS011;23154;52.542;13.362;2023-07-29T09:18:34;9.93;;;3.15;;
37267;SDS011;23154;52.542;13.362;2023-07-29T09:21:00;8.27;;;3.47;;
37267;SDS011;23154;52.542;13.362;2023-07-29T09:23:27;7.05;;;3.10;;
37267;SDS011;23154;52.542;13.362;2023-07-29T09:26:02;14.65;;;4.75;;
37267;SDS011;23154;52.542;13.362;2023-07-29T09:28:29;7.28;;;3.13;;
37267;SDS011;23154;52.542;13.362;2023-07-29T09:30:57;7.63;;;3.25;;
37267;SDS011;23154;52.542;13.362;2023-07-29T09:33:28;7.93;;;3.30;;
37267;SDS011;23154;52.542;13.362;2023-07-29T09:35:56;11.73;;;3.72;;
37267;SDS011;23154;52.542;13.362;2023-07-29T09:38:26;9.43;;;3.83;;
37267;SDS011;23154;52.542;13.362;2023-07-29T09:40:56;8.00;;;3.15;;
37267;SDS011;23154;52.542;13.362;2023-07-29T09:43:29;7.13;;;3.10;;
37267;SDS011;23154;52.542;13.362;2023-07-29T09:45:58;7.80;;;2.97;;
37267;SDS011;23154;52.542;13.362;2023-07-29T09:48:25;6.85;;;2.90;;
37267;SDS011;23154;52.542;13.362;2023-07-29T09:50:52;12.90;;;4.72;;
37267;SDS011;23154;52.542;13.362;2023-07-29T09:53:20;20.52;;;8.13;;
37267;SDS011;23154;52.542;13.362;2023-07-29T09:55:48;8.05;;;3.20;;
37267;SDS011;23154;52.542;13.362;2023-07-29T09:58:19;12.07;;;3.47;;
37267;SDS011;23154;52.542;13.362;2023-07-29T10:00:45;7.78;;;3.33;;
37267;SDS011;23154;52.542;13.362;2023-07-29T10:03:13;14.52;;;3.55;;
37267;SDS011;23154;52.542;13.362;2023-07-29T10:05:40;6.82;;;2.80;;
37267;SDS011;23154;52.542;13.362;2023-07-29T10:08:06;7.78;;;2.95;;
37267;SDS011;23154;52.542;13.362;2023-07-29T10:10:33;9.18;;;3.80;;
37267;SDS011;23154;52.542;13.362;2023-07-29T10:12:59;6.35;;;3.17;;
37267;SDS011;23154;52.542;13.362;2023-07-29T10:15:27;8.75;;;2.78;;
37267;SDS011;23154;52.542;13.362;2023-07-29T10:17:56;7.78;;;2.60;;
37267;SDS011;23154;52.542;13.362;2023-07-29T10:20:22;6.90;;;2.83;;
37267;SDS011;23154;52.542;13.362;2023-07-29T10:22:49;7.95;;;2.75;;
37267;SDS011;23154;52.542;13.362;2023-07-29T10:25:17;9.73;;;2.67;;
37267;SDS011;23154;52.542;13.362;2023-07-29T10:28:04;6.68;;;2.80;;
37267;SDS011;23154;52.542;13.362;2023-07-29T10:30:30;7.35;;;2.60;;
37267;SDS011;23154;52.542;13.362;2023-07-29T10:32:58;8.90;;;2.70;;
37267;SDS011;23154;52.542;13.362;2023-07-29T10:35:25;8.65;;;2.63;;
37267;SDS011;23154;52.542;13.362;2023-07-29T10:37:52;7.70;;;2.50;;
37267;SDS011;23154;52.542;13.362;2023-07-29T10:40:19;7.43;;;2.30;;
37267;SDS011;23154;52.542;13.362;2023-07-29T10:43:01;7.30;;;3.03;;
37267;SDS011;23154;52.542;13.362;2023-07-29T10:45:35;9.35;;;2.92;;
37267;SDS011;23154;52.542;13.362;2023-07-29T10:48:10;5.55;;;2.40;;
37267;SDS011;23154;52.542;13.362;2023-07-29T10:50:36;8.48;;;2.60;;
37267;SDS011;23154;52.542;13.362;2023-07-29T10:53:02;8.25;;;2.88;;
37267;SDS011;23154;52.542;13.362;2023-07-29T10:55:32;6.07;;;2.28;;
37267;SDS011;23154;52.542;13.362;2023-07-29T11:00:34;9.13;;;2.72;;
37267;SDS011;23154;52.542;13.362;2023-07-29T11:03:02;8.15;;;2.50;;
37267;SDS011;23154;52.542;13.362;2023-07-29T11:05:47;5.72;;;2.35;;
37267;SDS011;23154;52.542;13.362;2023-07-29T11:08:17;8.73;;;2.40;;
37267;SDS011;23154;52.542;13.362;2023-07-29T11:10:44;9.80;;;2.25;;
37267;SDS011;23154;52.542;13.362;2023-07-29T11:13:10;7.18;;;2.33;;
37267;SDS011;23154;52.542;13.362;2023-07-29T11:15:37;21.75;;;2.75;;
37267;SDS011;23154;52.542;13.362;2023-07-29T11:18:04;16.65;;;2.88;;
37267;SDS011;23154;52.542;13.362;2023-07-29T11:20:33;22.75;;;2.58;;
37267;SDS011;23154;52.542;13.362;2023-07-29T11:23:00;25.10;;;2.10;;
37267;SDS011;23154;52.542;13.362;2023-07-29T11:25:28;6.85;;;1.52;;
37267;SDS011;23154;52.542;13.362;2023-07-29T11:27:55;4.10;;;1.58;;
37267;SDS011;23154;52.542;13.362;2023-07-29T11:30:21;8.13;;;1.65;;
37267;SDS011;23154;52.542;13.362;2023-07-29T11:32:56;5.22;;;1.30;;
37267;SDS011;23154;52.542;13.362;2023-07-29T11:35:22;5.40;;;1.65;;
37267;SDS011;23154;52.542;13.362;2023-07-29T11:37:49;12.57;;;2.00;;
37267;SDS011;23154;52.542;13.362;2023-07-29T11:40:16;15.93;;;3.63;;
37267;SDS011;23154;52.542;13.362;2023-07-29T11:42:43;7.65;;;2.00;;
37267;SDS011;23154;52.542;13.362;2023-07-29T11:45:09;9.43;;;2.65;;
37267;SDS011;23154;52.542;13.362;2023-07-29T11:47:36;5.82;;;1.92;;
37267;SDS011;23154;52.542;13.362;2023-07-29T11:50:06;7.18;;;2.10;;
37267;SDS011;23154;52.542;13.362;2023-07-29T11:52:34;23.10;;;9.98;;
37267;SDS011;23154;52.542;13.362;2023-07-29T11:55:01;7.93;;;2.17;;
37267;SDS011;23154;52.542;13.362;2023-07-29T11:57:28;15.98;;;4.88;;
37267;SDS011;23154;52.542;13.362;2023-07-29T11:59:54;19.20;;;6.50;;
37267;SDS011;23154;52.542;13.362;2023-07-29T12:02:20;16.30;;;4.47;;
37267;SDS011;23154;52.542;13.362;2023-07-29T12:04:47;12.75;;;3.92;;
37267;SDS011;23154;52.542;13.362;2023-07-29T12:07:14;9.95;;;3.47;;
37267;SDS011;23154;52.542;13.362;2023-07-29T12:09:41;7.38;;;2.22;;
37267;SDS011;23154;52.542;13.362;2023-07-29T12:12:08;16.75;;;5.90;;
37267;SDS011;23154;52.542;13.362;2023-07-29T12:14:34;12.60;;;3.30;;
37267;SDS011;23154;52.542;13.362;2023-07-29T12:17:01;18.67;;;6.68;;
37267;SDS011;23154;52.542;13.362;2023-07-29T12:19:34;15.15;;;5.13;;
37267;SDS011;23154;52.542;13.362;2023-07-29T12:22:01;24.88;;;11.18;;
37267;SDS011;23154;52.542;13.362;2023-07-29T12:24:27;26.58;;;12.05;;
37267;SDS011;23154;52.542;13.362;2023-07-29T12:26:54;10.32;;;3.55;;
37267;SDS011;23154;52.542;13.362;2023-07-29T12:29:20;16.75;;;6.05;;
37267;SDS011;23154;52.542;13.362;2023-07-29T12:31:47;24.20;;;9.00;;
37267;SDS011;23154;52.542;13.362;2023-07-29T12:34:19;6.68;;;2.35;;
37267;SDS011;23154;52.542;13.362;2023-07-29T12:36:49;18.90;;;5.15;;
37267;SDS011;23154;52.542;13.362;2023-07-29T12:39:15;14.30;;;4.85;;
37267;SDS011;23154;52.542;13.362;2023-07-29T12:41:41;9.45;;;3.17;;
37267;SDS011;23154;52.542;13.362;2023-07-29T12:44:07;18.75;;;6.68;;
37267;SDS011;23154;52.542;13.362;2023-07-29T12:46:33;18.75;;;5.50;;
37267;SDS011;23154;52.542;13.362;2023-07-29T12:48:59;13.85;;;4.13;;
37267;SDS011;23154;52.542;13.362;2023-07-29T12:51:26;9.32;;;3.10;;
37267;SDS011;23154;52.542;13.362;2023-07-29T12:53:53;13.95;;;4.47;;
37267;SDS011;23154;52.542;13.362;2023-07-29T12:56:19;19.30;;;8.70;;
37267;SDS011;23154;52.542;13.362;2023-07-29T12:58:45;9.27;;;3.20;;
37267;SDS011;23154;52.542;13.362;2023-07-29T13:01:11;11.60;;;3.72;;
37267;SDS011;23154;52.542;13.362;2023-07-29T13:03:47;9.93;;;3.58;;
37267;SDS011;23154;52.542;13.362;2023-07-29T13:08:39;8.52;;;3.58;;
37267;SDS011;23154;52.542;13.362;2023-07-29T13:11:05;12.77;;;3.80;;
37267;SDS011;23154;52.542;13.362;2023-07-29T13:13:31;8.48;;;3.38;;
37267;SDS011;23154;52.542;13.362;2023-07-29T13:15:57;11.23;;;3.97;;
37267;SDS011;23154;52.542;13.362;2023-07-29T13:18:23;8.88;;;3.50;;
37267;SDS011;23154;52.542;13.362;2023-07-29T13:20:49;8.10;;;3.38;;
37267;SDS011;23154;52.542;13.362;2023-07-29T13:23:15;8.00;;;3.15;;
37267;SDS011;23154;52.542;13.362;2023-07-29T13:25:41;9.40;;;3.40;;
37267;SDS011;23154;52.542;13.362;2023-07-29T13:28:11;11.13;;;3.65;;
37267;SDS011;23154;52.542;13.362;2023-07-29T13:30:40;10.13;;;3.33;;
37267;SDS011;23154;52.542;13.362;2023-07-29T13:33:06;8.55;;;3.40;;
37267;SDS011;23154;52.542;13.362;2023-07-29T13:35:32;7.72;;;2.75;;
37267;SDS011;23154;52.542;13.362;2023-07-29T13:37:58;10.57;;;3.42;;
37267;SDS011;23154;52.542;13.362;2023-07-29T13:40:24;7.20;;;2.70;;
37267;SDS011;23154;52.542;13.362;2023-07-29T13:42:51;7.03;;;2.72;;
37267;SDS011;23154;52.542;13.362;2023-07-29T13:45:17;7.30;;;2.70;;
37267;SDS011;23154;52.542;13.362;2023-07-29T13:47:43;6.03;;;2.40;;
37267;SDS011;23154;52.542;13.362;2023-07-29T13:50:09;6.00;;;2.30;;
37267;SDS011;23154;52.542;13.362;2023-07-29T13:52:36;4.30;;;2.00;;
37267;SDS011;23154;52.542;13.362;2023-07-29T13:55:02;4.32;;;1.80;;
37267;SDS011;23154;52.542;13.362;2023-07-29T13:57:28;3.58;;;1.90;;
37267;SDS011;23154;52.542;13.362;2023-07-29T13:59:54;6.90;;;2.05;;
37267;SDS011;23154;52.542;13.362;2023-07-29T14:02:20;7.35;;;2.65;;
37267;SDS011;23154;52.542;13.362;2023-07-29T14:04:47;4.15;;;1.63;;
37267;SDS011;23154;52.542;13.362;2023-07-29T14:07:13;4.22;;;1.88;;
37267;SDS011;23154;52.542;13.362;2023-07-29T14:09:39;5.05;;;2.00;;
37267;SDS011;23154;52.542;13.362;2023-07-29T14:12:05;5.40;;;1.88;;
37267;SDS011;23154;52.542;13.362;2023-07-29T14:14:31;3.92;;;1.60;;
37267;SDS011;23154;52.542;13.362;2023-07-29T14:16:57;5.07;;;1.70;;
37267;SDS011;23154;52.542;13.362;2023-07-29T14:19:24;5.38;;;1.60;;
37267;SDS011;23154;52.542;13.362;2023-07-29T14:21:50;3.08;;;1.35;;
37267;SDS011;23154;52.542;13.362;2023-07-29T14:24:16;4.18;;;1.70;;
37267;SDS011;23154;52.542;13.362;2023-07-29T14:26:42;3.35;;;1.42;;
37267;SDS011;23154;52.542;13.362;2023-07-29T14:29:08;4.30;;;1.83;;
37267;SDS011;23154;52.542;13.362;2023-07-29T14:31:34;4.55;;;1.40;;
37267;SDS011;23154;52.542;13.362;2023-07-29T14:34:00;3.70;;;1.50;;